sensor_id;sensor_type;location;lat;lon;timestamp;temperature;humidity
2623;DHT22;1321;48.690;9.022;2023-02-05T00:00:49;4.70;18.40
2623;DHT22;1321;48.690;9.022;2023-02-05T00:03:18;4.80;27.50
2623;DHT22;1321;48.690;9.022;2023-02-05T00:05:46;4.70;1.00
2623;DHT22;1321;48.690;9.022;2023-02-05T00:08:15;4.80;1.00
2623;DHT22;1321;48.690;9.022;2023-02-05T00:10:43;4.90;1.00
2623;DHT22;1321;48.690;9.022;2023-02-05T00:13:17;4.90;1.00
2623;DHT22;1321;48.690;9.022;2023-02-05T00:15:45;4.90;1.00
2623;DHT22;1321;48.690;9.022;2023-02-05T00:18:13;4.90;1.00
2623;DHT22;1321;48.690;9.022;2023-02-05T00:20:41;5.00;1.00
2623;DHT22;1321;48.690;9.022;2023-02-05T00:23:10;5.00;1.00
2623;DHT22;1321;48.690;9.022;2023-02-05T00:25:39;5.00;1.00
2623;DHT22;1321;48.690;9.022;2023-02-05T00:28:07;5.00;1.00
2623;DHT22;1321;48.690;9.022;2023-02-05T00:30:35;5.10;1.00
2623;DHT22;1321;48.690;9.022;2023-02-05T00:33:06;5.00;1.00
2623;DHT22;1321;48.690;9.022;2023-02-05T00:35:35;5.10;1.00
2623;DHT22;1321;48.690;9.022;2023-02-05T00:38:03;5.10;1.00
2623;DHT22;1321;48.690;9.022;2023-02-05T00:40:31;5.00;1.00
2623;DHT22;1321;48.690;9.022;2023-02-05T00:43:00;5.00;1.00
2623;DHT22;1321;48.690;9.022;2023-02-05T00:45:28;5.10;1.00
2623;DHT22;1321;48.690;9.022;2023-02-05T00:48:01;5.00;26.70
2623;DHT22;1321;48.690;9.022;2023-02-05T00:50:30;4.90;99.90
2623;DHT22;1321;48.690;9.022;2023-02-05T00:52:58;4.80;99.90
2623;DHT22;1321;48.690;9.022;2023-02-05T00:55:27;4.80;1.00
2623;DHT22;1321;48.690;9.022;2023-02-05T00:57:55;4.90;99.90
2623;DHT22;1321;48.690;9.022;2023-02-05T01:00:24;4.90;99.90
2623;DHT22;1321;48.690;9.022;2023-02-05T01:02:53;4.80;1.00
2623;DHT22;1321;48.690;9.022;2023-02-05T01:05:21;4.90;1.00
2623;DHT22;1321;48.690;9.022;2023-02-05T01:07:49;4.90;1.00
2623;DHT22;1321;48.690;9.022;2023-02-05T01:10:18;5.00;99.90
2623;DHT22;1321;48.690;9.022;2023-02-05T01:12:47;5.10;74.20
2623;DHT22;1321;48.690;9.022;2023-02-05T01:15:16;5.20;1.00
2623;DHT22;1321;48.690;9.022;2023-02-05T01:17:46;5.20;99.90
2623;DHT22;1321;48.690;9.022;2023-02-05T01:20:14;5.10;1.00
2623;DHT22;1321;48.690;9.022;2023-02-05T01:22:43;5.00;1.00
2623;DHT22;1321;48.690;9.022;2023-02-05T01:25:11;5.00;1.00
2623;DHT22;1321;48.690;9.022;2023-02-05T01:27:39;5.00;1.00
2623;DHT22;1321;48.690;9.022;2023-02-05T01:30:08;5.00;1.00
2623;DHT22;1321;48.690;9.022;2023-02-05T01:32:38;4.90;1.00
2623;DHT22;1321;48.690;9.022;2023-02-05T01:35:09;4.90;1.00
2623;DHT22;1321;48.690;9.022;2023-02-05T01:37:37;5.00;1.00
2623;DHT22;1321;48.690;9.022;2023-02-05T01:40:05;4.90;1.00
2623;DHT22;1321;48.690;9.022;2023-02-05T01:42:34;4.80;1.00
2623;DHT22;1321;48.690;9.022;2023-02-05T01:48:21;4.70;1.00
2623;DHT22;1321;48.690;9.022;2023-02-05T01:50:54;4.60;99.90
2623;DHT22;1321;48.690;9.022;2023-02-05T01:53:27;4.60;1.00
2623;DHT22;1321;48.690;9.022;2023-02-05T01:55:58;4.60;99.90
2623;DHT22;1321;48.690;9.022;2023-02-05T01:58:30;4.60;99.90
2623;DHT22;1321;48.690;9.022;2023-02-05T02:00:59;4.70;99.90
2623;DHT22;1321;48.690;9.022;2023-02-05T02:03:29;4.80;27.70
2623;DHT22;1321;48.690;9.022;2023-02-05T02:05:59;4.80;1.00
2623;DHT22;1321;48.690;9.022;2023-02-05T02:08:30;4.70;1.00
2623;DHT22;1321;48.690;9.022;2023-02-05T02:11:01;4.80;1.00
2623;DHT22;1321;48.690;9.022;2023-02-05T02:13:32;4.70;1.00
2623;DHT22;1321;48.690;9.022;2023-02-05T02:16:03;4.60;3.90
2623;DHT22;1321;48.690;9.022;2023-02-05T02:18:32;4.40;86.90
2623;DHT22;1321;48.690;9.022;2023-02-05T02:27:04;4.50;99.90
2623;DHT22;1321;48.690;9.022;2023-02-05T02:29:42;4.40;99.90
2623;DHT22;1321;48.690;9.022;2023-02-05T02:32:18;4.40;1.00
2623;DHT22;1321;48.690;9.022;2023-02-05T02:34:52;4.50;1.00
2623;DHT22;1321;48.690;9.022;2023-02-05T02:37:26;4.60;1.00
2623;DHT22;1321;48.690;9.022;2023-02-05T02:40:05;4.70;1.00
2623;DHT22;1321;48.690;9.022;2023-02-05T02:42:38;4.90;99.90
2623;DHT22;1321;48.690;9.022;2023-02-05T02:45:10;5.00;1.00
2623;DHT22;1321;48.690;9.022;2023-02-05T02:47:44;5.10;1.00
2623;DHT22;1321;48.690;9.022;2023-02-05T02:50:16;5.00;1.00
2623;DHT22;1321;48.690;9.022;2023-02-05T02:52:47;5.00;1.00
2623;DHT22;1321;48.690;9.022;2023-02-05T02:55:16;4.90;1.00
2623;DHT22;1321;48.690;9.022;2023-02-05T02:57:48;5.00;1.00
2623;DHT22;1321;48.690;9.022;2023-02-05T03:00:21;5.00;39.10
2623;DHT22;1321;48.690;9.022;2023-02-05T03:02:55;5.10;1.00
2623;DHT22;1321;48.690;9.022;2023-02-05T03:05:25;5.00;1.00
2623;DHT22;1321;48.690;9.022;2023-02-05T03:07:58;5.00;1.00
2623;DHT22;1321;48.690;9.022;2023-02-05T03:10:35;5.10;1.00
2623;DHT22;1321;48.690;9.022;2023-02-05T03:13:08;5.10;99.90
2623;DHT22;1321;48.690;9.022;2023-02-05T03:15:41;5.20;99.90
2623;DHT22;1321;48.690;9.022;2023-02-05T03:18:10;5.30;99.90
2623;DHT22;1321;48.690;9.022;2023-02-05T03:20:43;5.00;99.90
2623;DHT22;1321;48.690;9.022;2023-02-05T03:23:12;5.00;1.00
2623;DHT22;1321;48.690;9.022;2023-02-05T03:25:40;4.90;99.90
2623;DHT22;1321;48.690;9.022;2023-02-05T03:28:09;4.80;1.00
2623;DHT22;1321;48.690;9.022;2023-02-05T03:30:46;4.80;99.90
2623;DHT22;1321;48.690;9.022;2023-02-05T03:33:37;4.80;1.00
2623;DHT22;1321;48.690;9.022;2023-02-05T03:36:12;4.70;99.90
2623;DHT22;1321;48.690;9.022;2023-02-05T03:39:00;4.70;99.90
2623;DHT22;1321;48.690;9.022;2023-02-05T03:41:35;4.70;99.90
2623;DHT22;1321;48.690;9.022;2023-02-05T03:44:45;4.90;99.90
2623;DHT22;1321;48.690;9.022;2023-02-05T03:47:23;4.80;99.90
2623;DHT22;1321;48.690;9.022;2023-02-05T03:50:00;4.80;1.00
2623;DHT22;1321;48.690;9.022;2023-02-05T03:52:39;4.70;1.00
2623;DHT22;1321;48.690;9.022;2023-02-05T03:55:12;4.70;99.90
2623;DHT22;1321;48.690;9.022;2023-02-05T03:57:47;4.70;25.60
2623;DHT22;1321;48.690;9.022;2023-02-05T04:00:16;4.60;1.00
2623;DHT22;1321;48.690;9.022;2023-02-05T04:02:46;4.50;99.90
2623;DHT22;1321;48.690;9.022;2023-02-05T04:05:14;4.50;99.90
2623;DHT22;1321;48.690;9.022;2023-02-05T04:07:42;4.40;99.90
2623;DHT22;1321;48.690;9.022;2023-02-05T04:10:10;4.40;99.90
2623;DHT22;1321;48.690;9.022;2023-02-05T04:12:38;4.30;1.00
2623;DHT22;1321;48.690;9.022;2023-02-05T04:15:07;4.50;1.00
2623;DHT22;1321;48.690;9.022;2023-02-05T04:17:36;4.40;99.90
2623;DHT22;1321;48.690;9.022;2023-02-05T04:20:07;4.60;99.90
2623;DHT22;1321;48.690;9.022;2023-02-05T04:22:36;4.60;1.00
2623;DHT22;1321;48.690;9.022;2023-02-05T04:25:04;4.60;1.00
2623;DHT22;1321;48.690;9.022;2023-02-05T04:27:33;4.70;1.00
2623;DHT22;1321;48.690;9.022;2023-02-05T04:30:01;4.50;1.00
2623;DHT22;1321;48.690;9.022;2023-02-05T04:32:29;4.40;1.00
2623;DHT22;1321;48.690;9.022;2023-02-05T04:34:57;4.30;1.00
2623;DHT22;1321;48.690;9.022;2023-02-05T04:37:27;4.30;1.00
2623;DHT22;1321;48.690;9.022;2023-02-05T04:39:55;4.10;1.00
2623;DHT22;1321;48.690;9.022;2023-02-05T04:42:23;3.90;1.00
2623;DHT22;1321;48.690;9.022;2023-02-05T04:44:51;3.90;1.00
2623;DHT22;1321;48.690;9.022;2023-02-05T04:47:20;4.00;1.00
2623;DHT22;1321;48.690;9.022;2023-02-05T04:49:48;4.00;1.00
2623;DHT22;1321;48.690;9.022;2023-02-05T04:52:16;4.10;1.00
2623;DHT22;1321;48.690;9.022;2023-02-05T04:54:46;3.90;1.00
2623;DHT22;1321;48.690;9.022;2023-02-05T04:57:14;4.00;99.90
2623;DHT22;1321;48.690;9.022;2023-02-05T04:59:42;3.90;1.00
2623;DHT22;1321;48.690;9.022;2023-02-05T05:02:10;3.90;1.00
2623;DHT22;1321;48.690;9.022;2023-02-05T05:04:38;3.80;33.10
2623;DHT22;1321;48.690;9.022;2023-02-05T05:07:08;3.80;91.30
2623;DHT22;1321;48.690;9.022;2023-02-05T05:09:37;3.90;41.20
2623;DHT22;1321;48.690;9.022;2023-02-05T05:12:06;3.80;99.90
2623;DHT22;1321;48.690;9.022;2023-02-05T05:14:35;3.80;1.00
2623;DHT22;1321;48.690;9.022;2023-02-05T05:17:04;3.80;99.90
2623;DHT22;1321;48.690;9.022;2023-02-05T05:19:33;3.80;1.00
2623;DHT22;1321;48.690;9.022;2023-02-05T05:22:01;3.90;96.10
2623;DHT22;1321;48.690;9.022;2023-02-05T05:24:29;3.90;1.00
2623;DHT22;1321;48.690;9.022;2023-02-05T05:26:58;3.80;99.90
2623;DHT22;1321;48.690;9.022;2023-02-05T05:29:27;3.90;1.00
2623;DHT22;1321;48.690;9.022;2023-02-05T05:31:56;4.00;1.00
2623;DHT22;1321;48.690;9.022;2023-02-05T05:34:24;4.10;99.90
2623;DHT22;1321;48.690;9.022;2023-02-05T05:36:52;3.90;1.00
2623;DHT22;1321;48.690;9.022;2023-02-05T05:39:20;3.90;99.90
2623;DHT22;1321;48.690;9.022;2023-02-05T05:42:02;3.90;99.90
2623;DHT22;1321;48.690;9.022;2023-02-05T05:44:49;3.90;99.90
2623;DHT22;1321;48.690;9.022;2023-02-05T05:47:18;4.10;99.90
2623;DHT22;1321;48.690;9.022;2023-02-05T05:49:47;4.20;1.00
2623;DHT22;1321;48.690;9.022;2023-02-05T05:52:15;4.20;1.00
2623;DHT22;1321;48.690;9.022;2023-02-05T05:54:43;4.30;1.00
2623;DHT22;1321;48.690;9.022;2023-02-05T05:57:12;4.40;99.90
2623;DHT22;1321;48.690;9.022;2023-02-05T05:59:40;4.50;88.50
2623;DHT22;1321;48.690;9.022;2023-02-05T06:02:09;4.40;94.20
2623;DHT22;1321;48.690;9.022;2023-02-05T06:04:37;4.30;99.90
2623;DHT22;1321;48.690;9.022;2023-02-05T06:07:06;4.10;1.00
2623;DHT22;1321;48.690;9.022;2023-02-05T06:09:34;3.90;99.90
2623;DHT22;1321;48.690;9.022;2023-02-05T06:12:02;4.00;1.00
2623;DHT22;1321;48.690;9.022;2023-02-05T06:14:30;4.00;1.00
2623;DHT22;1321;48.690;9.022;2023-02-05T06:16:58;4.00;1.00
2623;DHT22;1321;48.690;9.022;2023-02-05T06:19:27;4.00;99.90
2623;DHT22;1321;48.690;9.022;2023-02-05T06:21:56;4.00;99.90
2623;DHT22;1321;48.690;9.022;2023-02-05T06:24:24;4.00;44.60
2623;DHT22;1321;48.690;9.022;2023-02-05T06:26:52;3.90;99.90
2623;DHT22;1321;48.690;9.022;2023-02-05T06:29:20;3.80;1.00
2623;DHT22;1321;48.690;9.022;2023-02-05T06:31:48;3.90;99.90
2623;DHT22;1321;48.690;9.022;2023-02-05T06:34:17;4.00;99.90
2623;DHT22;1321;48.690;9.022;2023-02-05T06:36:47;3.90;1.00
2623;DHT22;1321;48.690;9.022;2023-02-05T06:39:15;3.90;99.90
2623;DHT22;1321;48.690;9.022;2023-02-05T06:41:43;3.90;95.00
2623;DHT22;1321;48.690;9.022;2023-02-05T06:44:11;4.00;99.90
2623;DHT22;1321;48.690;9.022;2023-02-05T06:46:39;4.10;68.20
2623;DHT22;1321;48.690;9.022;2023-02-05T06:49:07;4.10;1.00
2623;DHT22;1321;48.690;9.022;2023-02-05T06:51:35;4.10;1.00
2623;DHT22;1321;48.690;9.022;2023-02-05T06:54:05;4.20;1.00
2623;DHT22;1321;48.690;9.022;2023-02-05T06:56:33;4.30;99.90
2623;DHT22;1321;48.690;9.022;2023-02-05T06:59:01;4.20;99.90
2623;DHT22;1321;48.690;9.022;2023-02-05T07:01:29;4.20;1.00
2623;DHT22;1321;48.690;9.022;2023-02-05T07:03:57;4.30;99.90
2623;DHT22;1321;48.690;9.022;2023-02-05T07:06:26;4.30;99.90
2623;DHT22;1321;48.690;9.022;2023-02-05T07:08:54;4.20;1.00
2623;DHT22;1321;48.690;9.022;2023-02-05T07:11:24;4.20;99.90
2623;DHT22;1321;48.690;9.022;2023-02-05T07:13:53;4.20;1.00
2623;DHT22;1321;48.690;9.022;2023-02-05T07:16:21;4.20;28.30
2623;DHT22;1321;48.690;9.022;2023-02-05T07:18:49;4.30;99.90
2623;DHT22;1321;48.690;9.022;2023-02-05T07:21:18;4.20;1.00
2623;DHT22;1321;48.690;9.022;2023-02-05T07:23:47;4.20;1.00
2623;DHT22;1321;48.690;9.022;2023-02-05T07:26:16;4.20;1.00
2623;DHT22;1321;48.690;9.022;2023-02-05T07:28:45;4.40;1.00
2623;DHT22;1321;48.690;9.022;2023-02-05T07:31:16;4.40;99.90
2623;DHT22;1321;48.690;9.022;2023-02-05T07:33:45;4.30;1.00
2623;DHT22;1321;48.690;9.022;2023-02-05T07:36:15;4.30;99.90
2623;DHT22;1321;48.690;9.022;2023-02-05T07:38:44;4.30;99.90
2623;DHT22;1321;48.690;9.022;2023-02-05T07:41:15;4.30;1.00
2623;DHT22;1321;48.690;9.022;2023-02-05T07:43:44;4.30;1.00
2623;DHT22;1321;48.690;9.022;2023-02-05T07:46:13;4.40;99.90
2623;DHT22;1321;48.690;9.022;2023-02-05T07:48:41;4.30;76.60
2623;DHT22;1321;48.690;9.022;2023-02-05T07:51:15;4.30;99.90
2623;DHT22;1321;48.690;9.022;2023-02-05T07:53:43;4.50;26.30
2623;DHT22;1321;48.690;9.022;2023-02-05T07:56:12;4.60;99.90
2623;DHT22;1321;48.690;9.022;2023-02-05T07:58:41;4.60;99.90
2623;DHT22;1321;48.690;9.022;2023-02-05T08:01:11;4.60;1.00
2623;DHT22;1321;48.690;9.022;2023-02-05T08:03:39;4.60;99.90
2623;DHT22;1321;48.690;9.022;2023-02-05T08:06:10;4.50;1.00
2623;DHT22;1321;48.690;9.022;2023-02-05T08:08:39;4.60;85.00
2623;DHT22;1321;48.690;9.022;2023-02-05T08:11:12;4.60;1.00
2623;DHT22;1321;48.690;9.022;2023-02-05T08:13:40;4.70;99.90
2623;DHT22;1321;48.690;9.022;2023-02-05T08:16:10;4.70;99.90
2623;DHT22;1321;48.690;9.022;2023-02-05T08:18:41;4.70;53.80
2623;DHT22;1321;48.690;9.022;2023-02-05T08:21:10;4.70;99.90
2623;DHT22;1321;48.690;9.022;2023-02-05T08:23:38;4.70;55.10
2623;DHT22;1321;48.690;9.022;2023-02-05T08:26:06;4.70;1.00
2623;DHT22;1321;48.690;9.022;2023-02-05T08:28:34;4.80;99.90
2623;DHT22;1321;48.690;9.022;2023-02-05T08:31:09;4.90;1.00
2623;DHT22;1321;48.690;9.022;2023-02-05T08:33:39;4.90;99.90
2623;DHT22;1321;48.690;9.022;2023-02-05T08:36:10;4.90;99.90
2623;DHT22;1321;48.690;9.022;2023-02-05T08:38:38;5.00;99.90
2623;DHT22;1321;48.690;9.022;2023-02-05T08:41:07;5.00;99.90
2623;DHT22;1321;48.690;9.022;2023-02-05T08:43:39;5.00;34.70
2623;DHT22;1321;48.690;9.022;2023-02-05T08:46:09;5.10;1.00
2623;DHT22;1321;48.690;9.022;2023-02-05T08:48:39;5.20;1.00
2623;DHT22;1321;48.690;9.022;2023-02-05T08:51:09;5.10;1.00
2623;DHT22;1321;48.690;9.022;2023-02-05T08:53:38;5.10;1.00
2623;DHT22;1321;48.690;9.022;2023-02-05T08:56:07;5.10;99.90
2623;DHT22;1321;48.690;9.022;2023-02-05T08:58:37;5.20;1.00
2623;DHT22;1321;48.690;9.022;2023-02-05T09:01:07;5.20;1.00
2623;DHT22;1321;48.690;9.022;2023-02-05T09:03:36;5.20;99.90
2623;DHT22;1321;48.690;9.022;2023-02-05T09:06:07;5.20;1.00
2623;DHT22;1321;48.690;9.022;2023-02-05T09:08:36;5.20;1.00
2623;DHT22;1321;48.690;9.022;2023-02-05T09:11:05;5.30;6.80
2623;DHT22;1321;48.690;9.022;2023-02-05T09:13:33;5.40;1.00
2623;DHT22;1321;48.690;9.022;2023-02-05T09:16:02;5.40;1.00
2623;DHT22;1321;48.690;9.022;2023-02-05T09:18:30;5.40;1.00
2623;DHT22;1321;48.690;9.022;2023-02-05T09:20:59;5.40;17.60
2623;DHT22;1321;48.690;9.022;2023-02-05T09:23:28;5.50;99.90
2623;DHT22;1321;48.690;9.022;2023-02-05T09:25:57;5.40;99.90
2623;DHT22;1321;48.690;9.022;2023-02-05T09:28:26;5.50;1.00
2623;DHT22;1321;48.690;9.022;2023-02-05T09:30:54;5.50;1.00
2623;DHT22;1321;48.690;9.022;2023-02-05T09:33:22;5.50;1.00
2623;DHT22;1321;48.690;9.022;2023-02-05T09:35:50;5.40;99.90
2623;DHT22;1321;48.690;9.022;2023-02-05T09:38:18;5.40;51.00
2623;DHT22;1321;48.690;9.022;2023-02-05T09:40:54;5.30;1.00
2623;DHT22;1321;48.690;9.022;2023-02-05T09:43:31;5.40;1.00
2623;DHT22;1321;48.690;9.022;2023-02-05T09:46:07;5.40;1.00
2623;DHT22;1321;48.690;9.022;2023-02-05T09:48:46;5.40;1.00
2623;DHT22;1321;48.690;9.022;2023-02-05T09:51:19;5.40;1.00
2623;DHT22;1321;48.690;9.022;2023-02-05T09:53:53;5.40;79.70
2623;DHT22;1321;48.690;9.022;2023-02-05T09:56:24;5.30;99.90
2623;DHT22;1321;48.690;9.022;2023-02-05T09:58:54;5.40;99.90
2623;DHT22;1321;48.690;9.022;2023-02-05T10:01:33;5.50;99.90
2623;DHT22;1321;48.690;9.022;2023-02-05T10:04:03;5.50;99.90
2623;DHT22;1321;48.690;9.022;2023-02-05T10:09:55;5.50;99.90
2623;DHT22;1321;48.690;9.022;2023-02-05T10:12:39;5.50;99.90
2623;DHT22;1321;48.690;9.022;2023-02-05T10:15:31;5.50;1.00
2623;DHT22;1321;48.690;9.022;2023-02-05T10:18:11;5.50;1.00
2623;DHT22;1321;48.690;9.022;2023-02-05T10:20:51;5.40;99.90
2623;DHT22;1321;48.690;9.022;2023-02-05T10:23:46;5.40;99.90
2623;DHT22;1321;48.690;9.022;2023-02-05T10:26:17;5.50;99.90
2623;DHT22;1321;48.690;9.022;2023-02-05T10:29:06;5.40;1.00
2623;DHT22;1321;48.690;9.022;2023-02-05T10:31:41;5.50;1.00
2623;DHT22;1321;48.690;9.022;2023-02-05T10:34:17;5.50;1.00
2623;DHT22;1321;48.690;9.022;2023-02-05T10:36:49;5.50;99.90
2623;DHT22;1321;48.690;9.022;2023-02-05T10:39:20;5.50;99.90
2623;DHT22;1321;48.690;9.022;2023-02-05T10:41:54;5.60;1.00
2623;DHT22;1321;48.690;9.022;2023-02-05T10:44:29;5.60;1.00
2623;DHT22;1321;48.690;9.022;2023-02-05T10:47:03;5.60;1.00
2623;DHT22;1321;48.690;9.022;2023-02-05T10:49:41;5.50;1.00
2623;DHT22;1321;48.690;9.022;2023-02-05T10:52:14;5.60;99.90
2623;DHT22;1321;48.690;9.022;2023-02-05T10:54:43;5.60;99.90
2623;DHT22;1321;48.690;9.022;2023-02-05T10:57:13;5.60;99.90
2623;DHT22;1321;48.690;9.022;2023-02-05T10:59:49;5.60;99.90
2623;DHT22;1321;48.690;9.022;2023-02-05T11:02:21;5.60;99.90
2623;DHT22;1321;48.690;9.022;2023-02-05T11:04:54;5.70;1.00
2623;DHT22;1321;48.690;9.022;2023-02-05T11:07:26;5.70;99.90
2623;DHT22;1321;48.690;9.022;2023-02-05T11:10:12;5.80;99.90
2623;DHT22;1321;48.690;9.022;2023-02-05T11:12:43;5.80;99.90
2623;DHT22;1321;48.690;9.022;2023-02-05T11:15:21;5.80;1.00
2623;DHT22;1321;48.690;9.022;2023-02-05T11:17:51;5.90;99.90
2623;DHT22;1321;48.690;9.022;2023-02-05T11:20:25;5.90;99.90
2623;DHT22;1321;48.690;9.022;2023-02-05T11:23:13;5.90;1.00
2623;DHT22;1321;48.690;9.022;2023-02-05T11:25:50;5.90;1.00
2623;DHT22;1321;48.690;9.022;2023-02-05T11:28:22;5.90;99.90
2623;DHT22;1321;48.690;9.022;2023-02-05T11:30:54;5.90;99.90
2623;DHT22;1321;48.690;9.022;2023-02-05T11:33:27;5.80;99.90
2623;DHT22;1321;48.690;9.022;2023-02-05T11:35:59;5.80;99.90
2623;DHT22;1321;48.690;9.022;2023-02-05T11:38:34;5.90;70.90
2623;DHT22;1321;48.690;9.022;2023-02-05T11:41:07;5.90;1.00
2623;DHT22;1321;48.690;9.022;2023-02-05T11:43:39;5.90;99.90
2623;DHT22;1321;48.690;9.022;2023-02-05T11:46:09;5.90;86.20
2623;DHT22;1321;48.690;9.022;2023-02-05T11:48:43;6.00;99.90
2623;DHT22;1321;48.690;9.022;2023-02-05T11:51:14;6.00;99.90
2623;DHT22;1321;48.690;9.022;2023-02-05T11:53:51;5.90;1.00
2623;DHT22;1321;48.690;9.022;2023-02-05T11:56:22;6.00;1.00
2623;DHT22;1321;48.690;9.022;2023-02-05T11:58:58;6.00;71.30
2623;DHT22;1321;48.690;9.022;2023-02-05T12:01:31;6.10;99.90
2623;DHT22;1321;48.690;9.022;2023-02-05T12:04:01;6.10;99.90
2623;DHT22;1321;48.690;9.022;2023-02-05T12:06:35;6.00;99.90
2623;DHT22;1321;48.690;9.022;2023-02-05T12:09:05;6.10;1.00
2623;DHT22;1321;48.690;9.022;2023-02-05T12:11:43;6.00;1.00
2623;DHT22;1321;48.690;9.022;2023-02-05T12:14:43;6.00;99.90
2623;DHT22;1321;48.690;9.022;2023-02-05T12:17:24;6.00;99.90
2623;DHT22;1321;48.690;9.022;2023-02-05T12:19:58;6.00;99.90
2623;DHT22;1321;48.690;9.022;2023-02-05T12:22:45;6.00;99.90
2623;DHT22;1321;48.690;9.022;2023-02-05T12:25:23;6.00;99.90
2623;DHT22;1321;48.690;9.022;2023-02-05T12:28:08;6.00;1.00
2623;DHT22;1321;48.690;9.022;2023-02-05T12:30:52;6.00;99.90
2623;DHT22;1321;48.690;9.022;2023-02-05T12:33:38;6.10;1.00
2623;DHT22;1321;48.690;9.022;2023-02-05T12:36:27;6.10;1.00
2623;DHT22;1321;48.690;9.022;2023-02-05T12:39:04;6.10;1.00
2623;DHT22;1321;48.690;9.022;2023-02-05T12:41:40;6.20;1.00
2623;DHT22;1321;48.690;9.022;2023-02-05T12:44:23;6.10;1.00
2623;DHT22;1321;48.690;9.022;2023-02-05T12:47:07;6.10;99.90
2623;DHT22;1321;48.690;9.022;2023-02-05T12:50:02;6.10;99.90
2623;DHT22;1321;48.690;9.022;2023-02-05T12:52:44;6.20;99.90
2623;DHT22;1321;48.690;9.022;2023-02-05T12:55:25;6.20;99.90
2623;DHT22;1321;48.690;9.022;2023-02-05T12:58:00;6.30;1.00
2623;DHT22;1321;48.690;9.022;2023-02-05T13:00:33;6.10;1.00
2623;DHT22;1321;48.690;9.022;2023-02-05T13:03:10;6.10;99.90
2623;DHT22;1321;48.690;9.022;2023-02-05T13:05:45;6.00;1.00
2623;DHT22;1321;48.690;9.022;2023-02-05T13:08:18;6.00;1.00
2623;DHT22;1321;48.690;9.022;2023-02-05T13:10:52;6.00;1.00
2623;DHT22;1321;48.690;9.022;2023-02-05T13:13:24;6.00;99.90
2623;DHT22;1321;48.690;9.022;2023-02-05T13:15:59;6.00;99.90
2623;DHT22;1321;48.690;9.022;2023-02-05T13:18:29;6.00;99.90
2623;DHT22;1321;48.690;9.022;2023-02-05T13:21:05;5.90;99.90
2623;DHT22;1321;48.690;9.022;2023-02-05T13:24:03;5.90;1.00
2623;DHT22;1321;48.690;9.022;2023-02-05T13:26:56;6.00;99.90
2623;DHT22;1321;48.690;9.022;2023-02-05T13:29:46;6.10;99.90
2623;DHT22;1321;48.690;9.022;2023-02-05T13:32:20;6.10;99.90
2623;DHT22;1321;48.690;9.022;2023-02-05T13:34:50;6.20;99.90
2623;DHT22;1321;48.690;9.022;2023-02-05T13:37:46;6.20;99.90
2623;DHT22;1321;48.690;9.022;2023-02-05T13:40:40;6.20;99.90
2623;DHT22;1321;48.690;9.022;2023-02-05T13:43:30;6.20;1.00
2623;DHT22;1321;48.690;9.022;2023-02-05T13:46:26;6.20;1.00
2623;DHT22;1321;48.690;9.022;2023-02-05T13:49:34;6.20;99.90
2623;DHT22;1321;48.690;9.022;2023-02-05T13:52:39;6.20;85.30
2623;DHT22;1321;48.690;9.022;2023-02-05T13:55:41;6.10;1.00
2623;DHT22;1321;48.690;9.022;2023-02-05T13:58:18;6.10;1.00
2623;DHT22;1321;48.690;9.022;2023-02-05T14:00:55;6.10;3.30
2623;DHT22;1321;48.690;9.022;2023-02-05T14:03:29;6.10;1.00
2623;DHT22;1321;48.690;9.022;2023-02-05T14:06:17;6.10;99.90
2623;DHT22;1321;48.690;9.022;2023-02-05T14:08:50;5.90;1.00
2623;DHT22;1321;48.690;9.022;2023-02-05T14:11:23;5.90;99.90
2623;DHT22;1321;48.690;9.022;2023-02-05T14:14:13;5.90;1.00
2623;DHT22;1321;48.690;9.022;2023-02-05T14:16:47;5.80;1.00
2623;DHT22;1321;48.690;9.022;2023-02-05T14:19:20;5.70;99.90
2623;DHT22;1321;48.690;9.022;2023-02-05T14:22:09;5.70;99.90
2623;DHT22;1321;48.690;9.022;2023-02-05T14:24:42;5.70;1.00
2623;DHT22;1321;48.690;9.022;2023-02-05T14:27:48;5.70;99.90
2623;DHT22;1321;48.690;9.022;2023-02-05T14:30:46;5.70;99.90
2623;DHT22;1321;48.690;9.022;2023-02-05T14:33:42;5.60;99.90
2623;DHT22;1321;48.690;9.022;2023-02-05T14:36:30;5.60;1.00
2623;DHT22;1321;48.690;9.022;2023-02-05T14:39:02;5.60;1.00
2623;DHT22;1321;48.690;9.022;2023-02-05T14:41:44;5.70;99.90
2623;DHT22;1321;48.690;9.022;2023-02-05T14:44:19;5.50;1.00
2623;DHT22;1321;48.690;9.022;2023-02-05T14:47:03;5.50;37.50
2623;DHT22;1321;48.690;9.022;2023-02-05T14:49:41;5.50;1.00
2623;DHT22;1321;48.690;9.022;2023-02-05T14:52:26;5.60;99.90
2623;DHT22;1321;48.690;9.022;2023-02-05T14:54:58;5.60;27.70
2623;DHT22;1321;48.690;9.022;2023-02-05T14:57:38;5.60;99.90
2623;DHT22;1321;48.690;9.022;2023-02-05T15:00:23;5.60;1.00
2623;DHT22;1321;48.690;9.022;2023-02-05T15:05:58;5.40;99.90
2623;DHT22;1321;48.690;9.022;2023-02-05T15:08:46;5.40;99.90
2623;DHT22;1321;48.690;9.022;2023-02-05T15:11:26;5.50;99.90
2623;DHT22;1321;48.690;9.022;2023-02-05T15:14:25;5.40;99.90
2623;DHT22;1321;48.690;9.022;2023-02-05T15:17:45;5.30;27.60
2623;DHT22;1321;48.690;9.022;2023-02-05T15:20:24;5.30;1.00
2623;DHT22;1321;48.690;9.022;2023-02-05T15:23:14;5.30;40.50
2623;DHT22;1321;48.690;9.022;2023-02-05T15:25:51;5.40;99.90
2623;DHT22;1321;48.690;9.022;2023-02-05T15:28:27;5.30;99.90
2623;DHT22;1321;48.690;9.022;2023-02-05T15:31:15;5.20;99.90
2623;DHT22;1321;48.690;9.022;2023-02-05T15:33:53;5.30;1.00
2623;DHT22;1321;48.690;9.022;2023-02-05T15:36:29;5.30;99.90
2623;DHT22;1321;48.690;9.022;2023-02-05T15:39:12;5.20;27.60
2623;DHT22;1321;48.690;9.022;2023-02-05T15:41:43;5.20;99.90
2623;DHT22;1321;48.690;9.022;2023-02-05T15:44:24;5.20;1.00
2623;DHT22;1321;48.690;9.022;2023-02-05T15:46:55;5.20;1.00
2623;DHT22;1321;48.690;9.022;2023-02-05T15:49:30;5.30;37.70
2623;DHT22;1321;48.690;9.022;2023-02-05T15:51:59;5.30;1.00
2623;DHT22;1321;48.690;9.022;2023-02-05T15:54:31;5.30;1.00
2623;DHT22;1321;48.690;9.022;2023-02-05T15:57:02;5.30;1.00
2623;DHT22;1321;48.690;9.022;2023-02-05T15:59:31;5.30;1.00
2623;DHT22;1321;48.690;9.022;2023-02-05T16:02:13;5.30;1.00
2623;DHT22;1321;48.690;9.022;2023-02-05T16:04:50;5.20;15.50
2623;DHT22;1321;48.690;9.022;2023-02-05T16:07:22;5.30;1.00
2623;DHT22;1321;48.690;9.022;2023-02-05T16:09:52;5.30;99.90
2623;DHT22;1321;48.690;9.022;2023-02-05T16:12:23;5.30;1.00
2623;DHT22;1321;48.690;9.022;2023-02-05T16:14:59;5.30;89.10
2623;DHT22;1321;48.690;9.022;2023-02-05T16:17:34;5.30;99.90
2623;DHT22;1321;48.690;9.022;2023-02-05T16:20:19;5.30;69.40
2623;DHT22;1321;48.690;9.022;2023-02-05T16:22:55;5.20;99.90
2623;DHT22;1321;48.690;9.022;2023-02-05T16:25:38;5.30;99.90
2623;DHT22;1321;48.690;9.022;2023-02-05T16:28:14;5.40;1.00
2623;DHT22;1321;48.690;9.022;2023-02-05T16:30:45;5.30;1.00
2623;DHT22;1321;48.690;9.022;2023-02-05T16:33:23;5.40;1.00
2623;DHT22;1321;48.690;9.022;2023-02-05T16:35:54;5.30;1.00
2623;DHT22;1321;48.690;9.022;2023-02-05T16:38:23;5.40;1.00
2623;DHT22;1321;48.690;9.022;2023-02-05T16:40:53;5.30;23.30
2623;DHT22;1321;48.690;9.022;2023-02-05T16:43:29;5.30;99.90
2623;DHT22;1321;48.690;9.022;2023-02-05T16:46:20;5.30;1.00
2623;DHT22;1321;48.690;9.022;2023-02-05T16:48:51;5.20;99.90
2623;DHT22;1321;48.690;9.022;2023-02-05T16:51:28;5.30;1.00
2623;DHT22;1321;48.690;9.022;2023-02-05T16:53:59;5.40;99.90
2623;DHT22;1321;48.690;9.022;2023-02-05T16:56:29;5.30;99.90
2623;DHT22;1321;48.690;9.022;2023-02-05T16:59:00;5.30;1.00
2623;DHT22;1321;48.690;9.022;2023-02-05T17:01:35;5.30;1.00
2623;DHT22;1321;48.690;9.022;2023-02-05T17:04:05;5.20;99.90
2623;DHT22;1321;48.690;9.022;2023-02-05T17:06:36;5.20;1.00
2623;DHT22;1321;48.690;9.022;2023-02-05T17:09:04;5.20;99.90
2623;DHT22;1321;48.690;9.022;2023-02-05T17:11:35;5.20;1.00
2623;DHT22;1321;48.690;9.022;2023-02-05T17:14:20;5.20;1.00
2623;DHT22;1321;48.690;9.022;2023-02-05T17:16:55;5.20;99.90
2623;DHT22;1321;48.690;9.022;2023-02-05T17:19:27;5.20;99.90
2623;DHT22;1321;48.690;9.022;2023-02-05T17:22:18;5.30;99.90
2623;DHT22;1321;48.690;9.022;2023-02-05T17:24:47;5.30;1.00